Rocky, OK (73661)

3:49 PM CDT on September 22, 2014 (GMT -0500)
Hobart Municipal | Change Station
CLOSE
Current Station
Airport
Location: Hobart,
Elevation: 1565 ft
Nearby Weather Stations

Elev 1565 ft 34.99 °N, 99.05 °W | Updated 56 minutes ago

Clear
Clear
80 °F
Feels Like 80 °F
N
5
Wind Variable Wind from SSE

Today
High -- | Low -- °F
--% Chance of Precip.
Yesterday
High -- | Low -- °F
Precip. -- in
7:24 AM 7:32 PM
Waning Crescent, 2% visible
Pressure 30.19 in
Visibility 10.0 miles
Clouds Clear
Dew Point 43 °F
Humidity 27%
Rainfall 0.00 in
Snow Depth Not available.
UV 7 out of 12
Pollen 9.80 out of 12
Air Quality Not available.
Flu Activity Not available.
METAR KHBR 221953Z AUTO 16004KT 10SM CLR 27/06 A3023 RMK AO2 SLP221 T02670061

More Conditions Fewer Conditions

Pressure 30.19 in
Visibility 10.0 miles
Clouds Clear
Dew Point 43 °F
Humidity 27%
Rainfall 0.00 in
Snow Depth Not available.
UV 7 out of 12
Pollen 9.80 out of 12
Air Quality Not available.
Flu Activity Not available.
METAR KHBR 221953Z AUTO 16004KT 10SM CLR 27/06 A3023 RMK AO2 SLP221 T02670061

More Conditions Fewer Conditions

10-Day Weather Forecast

Almanac

Astronomy

Sep. 22, 2014 Rise Set
Actual Time 7:24 AM CDT 7:32 PM CDT
Civil Twilight 6:58 AM CDT 7:58 PM CDT
Nautical Twilight 6:29 AM CDT 8:27 PM CDT
Astronomical Twilight 5:59 AM CDT 8:57 PM CDT
Moon 5:56 AM CDT 6:40 PM CDT
Length of Visible Light 12h 59m
Length of Day
12h 08m
Tomorrow will be 2m 11s shorter.
Waning Crescent, 2% of the Moon is Illuminated
Today
Waning Crescent
Sep 24
New
Oct 1
First Quarter
Oct 8
Full
Oct 15
Last Quarter

Today's Extremes

State Highs State Lows

Community

WunderPhotos

Upload Photos

1,755,522 photos uploaded!

WunderBlogs® & News

Nearby

Snow Depth

Station Depth Elevation
No new snow has been reported.

Earthquake Activity

City Distance Mag. Time & Date
Bray, Oklahoma 94 miles 3.6 2:28 PM CDT
2014-09-22
Medford, Oklahoma 136 miles 3.2 2:10 AM CDT
2014-09-20
Luther, Oklahoma 115 miles 2.7 4:47 PM CDT
2014-09-19
Guthrie, Oklahoma 102 miles 3.6 12:23 PM CDT
2014-09-19
Minimum magnitude displayed is 2.5.

Coastal Water Temperatures

Place Temperature
No Stations Reporting

Nearby Weather Stations